sensor_id;sensor_type;location;lat;lon;timestamp;P1;durP1;ratioP1;P2;durP2;ratioP2
37771;SDS011;23610;59.380;24.642;2023-03-11T00:00:45;3.27;;;1.40;;
37771;SDS011;23610;59.380;24.642;2023-03-11T00:05:51;1.50;;;0.90;;
37771;SDS011;23610;59.380;24.642;2023-03-11T00:10:56;1.37;;;0.97;;
37771;SDS011;23610;59.380;24.642;2023-03-11T00:16:01;6.07;;;1.73;;
37771;SDS011;23610;59.380;24.642;2023-03-11T00:21:04;4.10;;;1.37;;
37771;SDS011;23610;59.380;24.642;2023-03-11T00:26:14;3.60;;;1.10;;
37771;SDS011;23610;59.380;24.642;2023-03-11T00:31:17;2.80;;;1.37;;
37771;SDS011;23610;59.380;24.642;2023-03-11T00:36:29;2.47;;;1.40;;
37771;SDS011;23610;59.380;24.642;2023-03-11T00:41:37;2.38;;;1.52;;
37771;SDS011;23610;59.380;24.642;2023-03-11T00:46:40;2.03;;;1.17;;
37771;SDS011;23610;59.380;24.642;2023-03-11T00:51:45;2.07;;;1.10;;
37771;SDS011;23610;59.380;24.642;2023-03-11T00:56:48;1.90;;;1.17;;
37771;SDS011;23610;59.380;24.642;2023-03-11T01:01:51;2.20;;;1.23;;
37771;SDS011;23610;59.380;24.642;2023-03-11T01:06:55;2.28;;;0.90;;
37771;SDS011;23610;59.380;24.642;2023-03-11T01:11:58;1.13;;;0.80;;
37771;SDS011;23610;59.380;24.642;2023-03-11T01:17:01;1.30;;;0.93;;
37771;SDS011;23610;59.380;24.642;2023-03-11T01:22:04;2.37;;;1.63;;
37771;SDS011;23610;59.380;24.642;2023-03-11T01:27:08;5.83;;;2.87;;
37771;SDS011;23610;59.380;24.642;2023-03-11T01:32:10;10.10;;;2.43;;
37771;SDS011;23610;59.380;24.642;2023-03-11T01:37:14;3.70;;;1.47;;
37771;SDS011;23610;59.380;24.642;2023-03-11T01:42:16;3.97;;;1.00;;
37771;SDS011;23610;59.380;24.642;2023-03-11T01:47:31;1.93;;;1.07;;
37771;SDS011;23610;59.380;24.642;2023-03-11T01:52:36;2.87;;;1.13;;
37771;SDS011;23610;59.380;24.642;2023-03-11T01:57:40;3.40;;;1.10;;
37771;SDS011;23610;59.380;24.642;2023-03-11T02:08:45;3.03;;;1.20;;
37771;SDS011;23610;59.380;24.642;2023-03-11T02:13:49;1.70;;;1.13;;
37771;SDS011;23610;59.380;24.642;2023-03-11T02:18:55;1.47;;;1.03;;
37771;SDS011;23610;59.380;24.642;2023-03-11T02:29:17;1.13;;;1.00;;
37771;SDS011;23610;59.380;24.642;2023-03-11T02:34:26;2.00;;;1.07;;
37771;SDS011;23610;59.380;24.642;2023-03-11T02:39:35;3.10;;;1.13;;
37771;SDS011;23610;59.380;24.642;2023-03-11T02:44:43;5.03;;;1.43;;
37771;SDS011;23610;59.380;24.642;2023-03-11T02:49:50;1.70;;;0.90;;
37771;SDS011;23610;59.380;24.642;2023-03-11T02:54:53;3.10;;;1.20;;
37771;SDS011;23610;59.380;24.642;2023-03-11T02:59:56;1.33;;;0.80;;
37771;SDS011;23610;59.380;24.642;2023-03-11T03:05:00;3.78;;;1.40;;
37771;SDS011;23610;59.380;24.642;2023-03-11T03:10:04;1.97;;;1.10;;
37771;SDS011;23610;59.380;24.642;2023-03-11T03:15:09;4.03;;;1.33;;
37771;SDS011;23610;59.380;24.642;2023-03-11T03:20:13;1.45;;;0.75;;
37771;SDS011;23610;59.380;24.642;2023-03-11T03:25:21;1.07;;;0.70;;
37771;SDS011;23610;59.380;24.642;2023-03-11T03:30:25;2.72;;;0.70;;
37771;SDS011;23610;59.380;24.642;2023-03-11T03:35:30;3.97;;;1.70;;
37771;SDS011;23610;59.380;24.642;2023-03-11T03:40:44;3.63;;;1.00;;
37771;SDS011;23610;59.380;24.642;2023-03-11T03:45:56;1.27;;;0.80;;
37771;SDS011;23610;59.380;24.642;2023-03-11T03:51:08;1.93;;;0.90;;
37771;SDS011;23610;59.380;24.642;2023-03-11T03:56:18;3.97;;;1.13;;
37771;SDS011;23610;59.380;24.642;2023-03-11T04:01:20;1.27;;;1.17;;
37771;SDS011;23610;59.380;24.642;2023-03-11T04:06:24;2.03;;;0.87;;
37771;SDS011;23610;59.380;24.642;2023-03-11T04:11:36;1.37;;;1.10;;
37771;SDS011;23610;59.380;24.642;2023-03-11T04:16:39;2.27;;;1.20;;
37771;SDS011;23610;59.380;24.642;2023-03-11T04:21:45;1.70;;;1.10;;
37771;SDS011;23610;59.380;24.642;2023-03-11T04:26:54;1.50;;;1.10;;
37771;SDS011;23610;59.380;24.642;2023-03-11T04:31:57;1.87;;;1.20;;
37771;SDS011;23610;59.380;24.642;2023-03-11T04:36:59;1.40;;;0.93;;
37771;SDS011;23610;59.380;24.642;2023-03-11T04:42:06;0.83;;;0.83;;
37771;SDS011;23610;59.380;24.642;2023-03-11T04:47:10;1.98;;;1.30;;
37771;SDS011;23610;59.380;24.642;2023-03-11T04:52:13;1.40;;;0.80;;
37771;SDS011;23610;59.380;24.642;2023-03-11T04:57:17;2.00;;;0.90;;
37771;SDS011;23610;59.380;24.642;2023-03-11T05:02:20;7.50;;;4.53;;
37771;SDS011;23610;59.380;24.642;2023-03-11T05:07:28;2.93;;;1.40;;
37771;SDS011;23610;59.380;24.642;2023-03-11T05:12:33;4.93;;;1.70;;
37771;SDS011;23610;59.380;24.642;2023-03-11T05:17:36;2.43;;;1.43;;
37771;SDS011;23610;59.380;24.642;2023-03-11T05:22:41;3.80;;;1.70;;
37771;SDS011;23610;59.380;24.642;2023-03-11T05:27:44;5.47;;;2.20;;
37771;SDS011;23610;59.380;24.642;2023-03-11T05:32:49;3.27;;;1.70;;
37771;SDS011;23610;59.380;24.642;2023-03-11T05:37:53;7.07;;;3.67;;
37771;SDS011;23610;59.380;24.642;2023-03-11T05:42:59;9.43;;;4.20;;
37771;SDS011;23610;59.380;24.642;2023-03-11T05:48:05;8.93;;;5.73;;
37771;SDS011;23610;59.380;24.642;2023-03-11T05:53:10;11.03;;;5.37;;
37771;SDS011;23610;59.380;24.642;2023-03-11T05:58:14;3.93;;;2.10;;
37771;SDS011;23610;59.380;24.642;2023-03-11T06:03:17;7.30;;;3.87;;
37771;SDS011;23610;59.380;24.642;2023-03-11T06:08:20;12.03;;;6.83;;
37771;SDS011;23610;59.380;24.642;2023-03-11T06:13:23;9.83;;;6.80;;
37771;SDS011;23610;59.380;24.642;2023-03-11T06:18:27;2.65;;;1.73;;
37771;SDS011;23610;59.380;24.642;2023-03-11T06:23:31;4.27;;;1.73;;
37771;SDS011;23610;59.380;24.642;2023-03-11T06:28:34;1.80;;;1.42;;
37771;SDS011;23610;59.380;24.642;2023-03-11T06:33:38;5.97;;;5.27;;
37771;SDS011;23610;59.380;24.642;2023-03-11T06:38:42;3.10;;;2.65;;
37771;SDS011;23610;59.380;24.642;2023-03-11T06:43:48;2.30;;;2.20;;
37771;SDS011;23610;59.380;24.642;2023-03-11T06:48:51;2.75;;;1.88;;
37771;SDS011;23610;59.380;24.642;2023-03-11T06:53:57;2.45;;;1.58;;
37771;SDS011;23610;59.380;24.642;2023-03-11T06:59:00;3.63;;;1.73;;
37771;SDS011;23610;59.380;24.642;2023-03-11T07:04:07;1.98;;;1.42;;
37771;SDS011;23610;59.380;24.642;2023-03-11T07:09:15;7.75;;;4.85;;
37771;SDS011;23610;59.380;24.642;2023-03-11T07:14:19;6.43;;;3.90;;
37771;SDS011;23610;59.380;24.642;2023-03-11T07:19:27;6.40;;;3.37;;
37771;SDS011;23610;59.380;24.642;2023-03-11T07:24:31;6.53;;;3.05;;
37771;SDS011;23610;59.380;24.642;2023-03-11T07:29:36;7.35;;;4.03;;
37771;SDS011;23610;59.380;24.642;2023-03-11T07:34:39;5.25;;;2.95;;
37771;SDS011;23610;59.380;24.642;2023-03-11T07:39:44;5.90;;;3.10;;
37771;SDS011;23610;59.380;24.642;2023-03-11T07:44:49;9.13;;;4.95;;
37771;SDS011;23610;59.380;24.642;2023-03-11T07:49:54;3.47;;;2.03;;
37771;SDS011;23610;59.380;24.642;2023-03-11T07:54:58;5.05;;;2.95;;
37771;SDS011;23610;59.380;24.642;2023-03-11T08:00:02;2.10;;;1.90;;
37771;SDS011;23610;59.380;24.642;2023-03-11T08:05:12;5.53;;;3.13;;
37771;SDS011;23610;59.380;24.642;2023-03-11T08:10:15;3.33;;;2.42;;
37771;SDS011;23610;59.380;24.642;2023-03-11T08:15:18;5.13;;;2.60;;
37771;SDS011;23610;59.380;24.642;2023-03-11T08:20:21;2.50;;;1.80;;
37771;SDS011;23610;59.380;24.642;2023-03-11T08:25:23;4.63;;;2.63;;
37771;SDS011;23610;59.380;24.642;2023-03-11T08:30:26;18.70;;;7.22;;
37771;SDS011;23610;59.380;24.642;2023-03-11T08:35:30;8.75;;;5.15;;
37771;SDS011;23610;59.380;24.642;2023-03-11T08:40:35;7.30;;;3.83;;
37771;SDS011;23610;59.380;24.642;2023-03-11T08:45:40;6.38;;;3.13;;
37771;SDS011;23610;59.380;24.642;2023-03-11T08:50:44;3.22;;;1.90;;
37771;SDS011;23610;59.380;24.642;2023-03-11T08:55:55;2.45;;;1.58;;
37771;SDS011;23610;59.380;24.642;2023-03-11T09:00:59;1.70;;;1.60;;
37771;SDS011;23610;59.380;24.642;2023-03-11T09:06:05;2.10;;;1.65;;
37771;SDS011;23610;59.380;24.642;2023-03-11T09:11:16;4.43;;;2.33;;
37771;SDS011;23610;59.380;24.642;2023-03-11T09:21:23;3.15;;;1.60;;
37771;SDS011;23610;59.380;24.642;2023-03-11T09:26:26;2.30;;;1.38;;
37771;SDS011;23610;59.380;24.642;2023-03-11T09:31:28;2.08;;;1.55;;
37771;SDS011;23610;59.380;24.642;2023-03-11T09:36:31;4.63;;;2.83;;
37771;SDS011;23610;59.380;24.642;2023-03-11T09:41:42;32.03;;;13.07;;
37771;SDS011;23610;59.380;24.642;2023-03-11T09:57:51;22.17;;;9.23;;
37771;SDS011;23610;59.380;24.642;2023-03-11T10:02:55;41.15;;;20.23;;
37771;SDS011;23610;59.380;24.642;2023-03-11T10:08:01;8.95;;;5.90;;
37771;SDS011;23610;59.380;24.642;2023-03-11T10:14:14;3.30;;;2.72;;
37771;SDS011;23610;59.380;24.642;2023-03-11T10:19:33;4.90;;;3.35;;
37771;SDS011;23610;59.380;24.642;2023-03-11T10:30:54;3.67;;;2.42;;
37771;SDS011;23610;59.380;24.642;2023-03-11T10:36:21;6.65;;;4.30;;
37771;SDS011;23610;59.380;24.642;2023-03-11T10:46:51;6.43;;;3.97;;
37771;SDS011;23610;59.380;24.642;2023-03-11T10:51:54;9.40;;;6.68;;
37771;SDS011;23610;59.380;24.642;2023-03-11T10:57:20;7.57;;;3.20;;
37771;SDS011;23610;59.380;24.642;2023-03-11T11:02:38;2.22;;;1.63;;
37771;SDS011;23610;59.380;24.642;2023-03-11T11:07:50;7.47;;;6.55;;
37771;SDS011;23610;59.380;24.642;2023-03-11T11:18:15;6.68;;;3.25;;
37771;SDS011;23610;59.380;24.642;2023-03-11T11:23:31;2.80;;;1.90;;
37771;SDS011;23610;59.380;24.642;2023-03-11T11:29:03;5.65;;;4.07;;
37771;SDS011;23610;59.380;24.642;2023-03-11T11:39:41;5.05;;;2.28;;
37771;SDS011;23610;59.380;24.642;2023-03-11T11:44:57;7.43;;;3.90;;
37771;SDS011;23610;59.380;24.642;2023-03-11T11:50:25;12.70;;;5.90;;
37771;SDS011;23610;59.380;24.642;2023-03-11T11:55:32;8.23;;;4.07;;
37771;SDS011;23610;59.380;24.642;2023-03-11T12:06:11;4.60;;;2.78;;
37771;SDS011;23610;59.380;24.642;2023-03-11T12:11:39;7.05;;;2.95;;
37771;SDS011;23610;59.380;24.642;2023-03-11T12:16:49;3.20;;;2.10;;
37771;SDS011;23610;59.380;24.642;2023-03-11T12:27:31;6.47;;;2.38;;
37771;SDS011;23610;59.380;24.642;2023-03-11T12:32:58;4.47;;;2.38;;
37771;SDS011;23610;59.380;24.642;2023-03-11T12:48:42;3.10;;;1.70;;
37771;SDS011;23610;59.380;24.642;2023-03-11T12:53:47;2.55;;;2.03;;
37771;SDS011;23610;59.380;24.642;2023-03-11T13:15:43;15.05;;;6.55;;
37771;SDS011;23610;59.380;24.642;2023-03-11T13:20:47;30.85;;;12.63;;
37771;SDS011;23610;59.380;24.642;2023-03-11T13:31:33;46.53;;;22.88;;
37771;SDS011;23610;59.380;24.642;2023-03-11T13:47:44;10.00;;;8.82;;
37771;SDS011;23610;59.380;24.642;2023-03-11T13:52:50;5.20;;;4.55;;
37771;SDS011;23610;59.380;24.642;2023-03-11T13:57:54;4.45;;;2.67;;
37771;SDS011;23610;59.380;24.642;2023-03-11T14:03:00;9.02;;;3.78;;
37771;SDS011;23610;59.380;24.642;2023-03-11T14:08:12;7.65;;;4.85;;
37771;SDS011;23610;59.380;24.642;2023-03-11T14:13:38;6.95;;;3.08;;
37771;SDS011;23610;59.380;24.642;2023-03-11T14:18:44;6.15;;;3.20;;
37771;SDS011;23610;59.380;24.642;2023-03-11T14:24:15;4.40;;;2.90;;
37771;SDS011;23610;59.380;24.642;2023-03-11T14:29:29;2.67;;;1.85;;
37771;SDS011;23610;59.380;24.642;2023-03-11T14:34:38;5.28;;;3.40;;
37771;SDS011;23610;59.380;24.642;2023-03-11T14:39:42;5.95;;;3.30;;
37771;SDS011;23610;59.380;24.642;2023-03-11T14:50:13;10.52;;;5.22;;
37771;SDS011;23610;59.380;24.642;2023-03-11T14:55:40;7.07;;;3.92;;
37771;SDS011;23610;59.380;24.642;2023-03-11T15:00:58;4.40;;;2.78;;
37771;SDS011;23610;59.380;24.642;2023-03-11T15:06:19;2.67;;;2.08;;
37771;SDS011;23610;59.380;24.642;2023-03-11T15:11:27;4.22;;;2.80;;
37771;SDS011;23610;59.380;24.642;2023-03-11T15:16:32;5.60;;;2.60;;
37771;SDS011;23610;59.380;24.642;2023-03-11T15:21:36;5.95;;;2.75;;
37771;SDS011;23610;59.380;24.642;2023-03-11T15:27:04;5.18;;;3.45;;
37771;SDS011;23610;59.380;24.642;2023-03-11T15:32:22;9.00;;;3.40;;
37771;SDS011;23610;59.380;24.642;2023-03-11T15:37:37;16.63;;;6.55;;
37771;SDS011;23610;59.380;24.642;2023-03-11T15:47:46;9.60;;;6.50;;
37771;SDS011;23610;59.380;24.642;2023-03-11T15:52:51;6.75;;;3.42;;
37771;SDS011;23610;59.380;24.642;2023-03-11T15:57:59;7.80;;;5.53;;
37771;SDS011;23610;59.380;24.642;2023-03-11T16:03:06;8.00;;;3.92;;
37771;SDS011;23610;59.380;24.642;2023-03-11T16:08:09;6.55;;;3.65;;
37771;SDS011;23610;59.380;24.642;2023-03-11T16:13:12;10.77;;;5.43;;
37771;SDS011;23610;59.380;24.642;2023-03-11T16:18:16;16.55;;;6.68;;
37771;SDS011;23610;59.380;24.642;2023-03-11T16:23:20;21.10;;;7.00;;
37771;SDS011;23610;59.380;24.642;2023-03-11T16:28:27;10.32;;;5.10;;
37771;SDS011;23610;59.380;24.642;2023-03-11T16:33:30;10.93;;;4.90;;
37771;SDS011;23610;59.380;24.642;2023-03-11T16:38:40;21.60;;;7.57;;
37771;SDS011;23610;59.380;24.642;2023-03-11T16:43:47;15.60;;;6.32;;
37771;SDS011;23610;59.380;24.642;2023-03-11T16:48:49;23.95;;;9.70;;
37771;SDS011;23610;59.380;24.642;2023-03-11T16:53:54;21.50;;;9.05;;
37771;SDS011;23610;59.380;24.642;2023-03-11T16:58:56;15.02;;;8.15;;
37771;SDS011;23610;59.380;24.642;2023-03-11T17:03:59;20.83;;;7.82;;
37771;SDS011;23610;59.380;24.642;2023-03-11T17:09:01;13.32;;;6.57;;
37771;SDS011;23610;59.380;24.642;2023-03-11T17:14:05;19.50;;;7.60;;
37771;SDS011;23610;59.380;24.642;2023-03-11T17:19:17;14.93;;;7.53;;
37771;SDS011;23610;59.380;24.642;2023-03-11T17:24:20;18.02;;;9.43;;
37771;SDS011;23610;59.380;24.642;2023-03-11T17:29:22;15.20;;;9.30;;
37771;SDS011;23610;59.380;24.642;2023-03-11T17:34:25;21.15;;;11.85;;
37771;SDS011;23610;59.380;24.642;2023-03-11T17:39:28;48.45;;;19.65;;
37771;SDS011;23610;59.380;24.642;2023-03-11T17:44:31;35.22;;;15.32;;
37771;SDS011;23610;59.380;24.642;2023-03-11T17:49:52;57.25;;;23.02;;
37771;SDS011;23610;59.380;24.642;2023-03-11T17:54:55;96.03;;;38.83;;
37771;SDS011;23610;59.380;24.642;2023-03-11T17:59:58;74.43;;;29.33;;
37771;SDS011;23610;59.380;24.642;2023-03-11T18:05:06;74.28;;;31.30;;
37771;SDS011;23610;59.380;24.642;2023-03-11T18:10:10;61.23;;;26.03;;
37771;SDS011;23610;59.380;24.642;2023-03-11T18:15:14;78.57;;;30.48;;
37771;SDS011;23610;59.380;24.642;2023-03-11T18:20:19;54.00;;;25.20;;
37771;SDS011;23610;59.380;24.642;2023-03-11T18:25:22;28.20;;;14.73;;
37771;SDS011;23610;59.380;24.642;2023-03-11T18:30:25;28.02;;;12.30;;
37771;SDS011;23610;59.380;24.642;2023-03-11T18:35:28;58.78;;;23.08;;
37771;SDS011;23610;59.380;24.642;2023-03-11T18:40:30;30.17;;;14.25;;
37771;SDS011;23610;59.380;24.642;2023-03-11T18:45:33;24.08;;;11.38;;
37771;SDS011;23610;59.380;24.642;2023-03-11T18:50:39;22.80;;;10.35;;
37771;SDS011;23610;59.380;24.642;2023-03-11T18:55:42;12.55;;;7.50;;
37771;SDS011;23610;59.380;24.642;2023-03-11T19:00:44;8.75;;;4.53;;
37771;SDS011;23610;59.380;24.642;2023-03-11T19:05:47;10.30;;;6.30;;
37771;SDS011;23610;59.380;24.642;2023-03-11T19:10:52;13.98;;;4.82;;
37771;SDS011;23610;59.380;24.642;2023-03-11T19:15:58;7.80;;;4.68;;
37771;SDS011;23610;59.380;24.642;2023-03-11T19:21:01;7.47;;;4.80;;
37771;SDS011;23610;59.380;24.642;2023-03-11T19:26:06;10.80;;;5.20;;
37771;SDS011;23610;59.380;24.642;2023-03-11T19:31:09;6.70;;;3.90;;
37771;SDS011;23610;59.380;24.642;2023-03-11T19:36:12;16.90;;;8.68;;
37771;SDS011;23610;59.380;24.642;2023-03-11T19:41:16;23.30;;;11.43;;
37771;SDS011;23610;59.380;24.642;2023-03-11T19:46:20;23.08;;;8.13;;
37771;SDS011;23610;59.380;24.642;2023-03-11T19:51:24;14.40;;;7.13;;
37771;SDS011;23610;59.380;24.642;2023-03-11T19:56:33;16.20;;;8.43;;
37771;SDS011;23610;59.380;24.642;2023-03-11T20:01:36;22.08;;;10.25;;
37771;SDS011;23610;59.380;24.642;2023-03-11T20:06:38;32.38;;;15.05;;
37771;SDS011;23610;59.380;24.642;2023-03-11T20:11:42;110.93;;;57.10;;
37771;SDS011;23610;59.380;24.642;2023-03-11T20:16:46;72.40;;;37.05;;
37771;SDS011;23610;59.380;24.642;2023-03-11T20:21:49;21.30;;;12.63;;
37771;SDS011;23610;59.380;24.642;2023-03-11T20:26:51;10.55;;;6.85;;
37771;SDS011;23610;59.380;24.642;2023-03-11T20:31:54;12.38;;;5.97;;
37771;SDS011;23610;59.380;24.642;2023-03-11T20:36:58;10.50;;;5.28;;
37771;SDS011;23610;59.380;24.642;2023-03-11T20:42:08;10.88;;;5.25;;
37771;SDS011;23610;59.380;24.642;2023-03-11T20:47:11;6.68;;;4.07;;
37771;SDS011;23610;59.380;24.642;2023-03-11T20:52:14;7.75;;;4.63;;
37771;SDS011;23610;59.380;24.642;2023-03-11T20:57:17;7.00;;;3.72;;
37771;SDS011;23610;59.380;24.642;2023-03-11T21:02:19;5.13;;;3.78;;
37771;SDS011;23610;59.380;24.642;2023-03-11T21:07:22;7.40;;;4.35;;
37771;SDS011;23610;59.380;24.642;2023-03-11T21:12:26;9.27;;;4.68;;
37771;SDS011;23610;59.380;24.642;2023-03-11T21:17:31;20.85;;;6.28;;
37771;SDS011;23610;59.380;24.642;2023-03-11T21:22:35;17.35;;;6.55;;
37771;SDS011;23610;59.380;24.642;2023-03-11T21:27:38;5.72;;;3.97;;
37771;SDS011;23610;59.380;24.642;2023-03-11T21:32:41;10.20;;;4.28;;
37771;SDS011;23610;59.380;24.642;2023-03-11T21:37:44;5.45;;;3.38;;
37771;SDS011;23610;59.380;24.642;2023-03-11T21:42:47;5.35;;;3.13;;
37771;SDS011;23610;59.380;24.642;2023-03-11T21:47:49;4.45;;;3.33;;
37771;SDS011;23610;59.380;24.642;2023-03-11T21:52:52;3.70;;;2.88;;
37771;SDS011;23610;59.380;24.642;2023-03-11T21:57:55;4.78;;;2.67;;
37771;SDS011;23610;59.380;24.642;2023-03-11T22:02:58;4.20;;;2.58;;
37771;SDS011;23610;59.380;24.642;2023-03-11T22:08:01;4.82;;;2.40;;
37771;SDS011;23610;59.380;24.642;2023-03-11T22:13:04;3.42;;;2.35;;
37771;SDS011;23610;59.380;24.642;2023-03-11T22:18:07;6.22;;;3.38;;
37771;SDS011;23610;59.380;24.642;2023-03-11T22:23:11;1.73;;;1.53;;
37771;SDS011;23610;59.380;24.642;2023-03-11T22:28:13;3.38;;;1.95;;
37771;SDS011;23610;59.380;24.642;2023-03-11T22:33:16;6.38;;;3.28;;
37771;SDS011;23610;59.380;24.642;2023-03-11T22:38:19;6.13;;;2.30;;
37771;SDS011;23610;59.380;24.642;2023-03-11T22:43:22;5.60;;;2.53;;
37771;SDS011;23610;59.380;24.642;2023-03-11T22:48:25;5.22;;;2.85;;
37771;SDS011;23610;59.380;24.642;2023-03-11T22:53:29;4.37;;;2.37;;
37771;SDS011;23610;59.380;24.642;2023-03-11T22:58:31;3.63;;;1.85;;
37771;SDS011;23610;59.380;24.642;2023-03-11T23:03:34;3.90;;;2.28;;
37771;SDS011;23610;59.380;24.642;2023-03-11T23:08:38;7.55;;;2.22;;
37771;SDS011;23610;59.380;24.642;2023-03-11T23:13:42;4.68;;;1.88;;
37771;SDS011;23610;59.380;24.642;2023-03-11T23:18:46;4.05;;;1.95;;
37771;SDS011;23610;59.380;24.642;2023-03-11T23:23:50;2.63;;;1.88;;
37771;SDS011;23610;59.380;24.642;2023-03-11T23:28:54;3.00;;;1.48;;
37771;SDS011;23610;59.380;24.642;2023-03-11T23:39:01;3.25;;;1.38;;
37771;SDS011;23610;59.380;24.642;2023-03-11T23:44:07;2.05;;;1.55;;
37771;SDS011;23610;59.380;24.642;2023-03-11T23:49:09;2.63;;;1.70;;
37771;SDS011;23610;59.380;24.642;2023-03-11T23:54:12;3.75;;;1.88;;
37771;SDS011;23610;59.380;24.642;2023-03-11T23:59:14;1.48;;;1.35;;
